sensor_id;sensor_type;location;lat;lon;timestamp;P1;durP1;ratioP1;P2;durP2;ratioP2
16460;SDS011;8341;42.048;24.650;2024-01-30T00:00:09;3.20;;;2.10;;
16460;SDS011;8341;42.048;24.650;2024-01-30T00:02:38;2.37;;;1.77;;
16460;SDS011;8341;42.048;24.650;2024-01-30T00:05:05;3.13;;;2.27;;
16460;SDS011;8341;42.048;24.650;2024-01-30T00:07:32;3.30;;;1.87;;
16460;SDS011;8341;42.048;24.650;2024-01-30T00:09:59;2.27;;;1.77;;
16460;SDS011;8341;42.048;24.650;2024-01-30T00:12:25;4.47;;;2.90;;
16460;SDS011;8341;42.048;24.650;2024-01-30T00:14:52;5.67;;;2.80;;
16460;SDS011;8341;42.048;24.650;2024-01-30T00:17:19;4.03;;;2.10;;
16460;SDS011;8341;42.048;24.650;2024-01-30T00:19:47;2.13;;;1.70;;
16460;SDS011;8341;42.048;24.650;2024-01-30T00:22:14;2.53;;;2.00;;
16460;SDS011;8341;42.048;24.650;2024-01-30T00:24:41;3.43;;;1.90;;
16460;SDS011;8341;42.048;24.650;2024-01-30T00:27:07;2.53;;;1.87;;
16460;SDS011;8341;42.048;24.650;2024-01-30T00:29:34;3.47;;;2.00;;
16460;SDS011;8341;42.048;24.650;2024-01-30T00:32:01;3.87;;;2.30;;
16460;SDS011;8341;42.048;24.650;2024-01-30T00:34:28;2.83;;;1.80;;
16460;SDS011;8341;42.048;24.650;2024-01-30T00:36:56;2.20;;;1.70;;
16460;SDS011;8341;42.048;24.650;2024-01-30T00:39:23;4.40;;;2.80;;
16460;SDS011;8341;42.048;24.650;2024-01-30T00:56:41;4.90;;;3.40;;
16460;SDS011;8341;42.048;24.650;2024-01-30T00:59:07;4.00;;;2.47;;
16460;SDS011;8341;42.048;24.650;2024-01-30T01:01:34;11.10;;;6.27;;
16460;SDS011;8341;42.048;24.650;2024-01-30T01:04:01;4.33;;;2.70;;
16460;SDS011;8341;42.048;24.650;2024-01-30T01:06:28;17.33;;;8.53;;
16460;SDS011;8341;42.048;24.650;2024-01-30T01:08:55;48.90;;;22.13;;
16460;SDS011;8341;42.048;24.650;2024-01-30T01:11:21;8.80;;;4.23;;
16460;SDS011;8341;42.048;24.650;2024-01-30T01:13:50;3.50;;;2.40;;
16460;SDS011;8341;42.048;24.650;2024-01-30T01:16:16;4.10;;;2.20;;
16460;SDS011;8341;42.048;24.650;2024-01-30T01:18:43;3.17;;;1.87;;
16460;SDS011;8341;42.048;24.650;2024-01-30T01:21:10;2.23;;;1.97;;
16460;SDS011;8341;42.048;24.650;2024-01-30T01:23:36;3.67;;;2.40;;
16460;SDS011;8341;42.048;24.650;2024-01-30T01:26:04;3.33;;;2.13;;
16460;SDS011;8341;42.048;24.650;2024-01-30T01:28:30;8.90;;;4.10;;
16460;SDS011;8341;42.048;24.650;2024-01-30T01:30:59;25.83;;;10.67;;
16460;SDS011;8341;42.048;24.650;2024-01-30T01:33:30;18.47;;;8.40;;
16460;SDS011;8341;42.048;24.650;2024-01-30T01:35:57;23.27;;;11.40;;
16460;SDS011;8341;42.048;24.650;2024-01-30T01:38:24;7.30;;;4.47;;
16460;SDS011;8341;42.048;24.650;2024-01-30T01:40:51;14.57;;;7.13;;
16460;SDS011;8341;42.048;24.650;2024-01-30T01:43:18;15.53;;;7.70;;
16460;SDS011;8341;42.048;24.650;2024-01-30T01:45:45;12.70;;;5.80;;
16460;SDS011;8341;42.048;24.650;2024-01-30T01:48:13;7.20;;;3.60;;
16460;SDS011;8341;42.048;24.650;2024-01-30T01:50:40;5.50;;;3.50;;
16460;SDS011;8341;42.048;24.650;2024-01-30T01:53:08;6.73;;;3.27;;
16460;SDS011;8341;42.048;24.650;2024-01-30T01:55:36;4.47;;;2.93;;
16460;SDS011;8341;42.048;24.650;2024-01-30T01:58:03;7.47;;;4.50;;
16460;SDS011;8341;42.048;24.650;2024-01-30T02:00:31;43.00;;;20.90;;
16460;SDS011;8341;42.048;24.650;2024-01-30T02:02:58;40.07;;;22.53;;
16460;SDS011;8341;42.048;24.650;2024-01-30T02:05:27;16.43;;;9.37;;
16460;SDS011;8341;42.048;24.650;2024-01-30T02:07:54;8.43;;;4.67;;
16460;SDS011;8341;42.048;24.650;2024-01-30T02:10:22;9.03;;;5.23;;
16460;SDS011;8341;42.048;24.650;2024-01-30T02:12:49;3.93;;;3.10;;
16460;SDS011;8341;42.048;24.650;2024-01-30T02:15:15;5.57;;;2.90;;
16460;SDS011;8341;42.048;24.650;2024-01-30T02:17:43;4.27;;;2.63;;
16460;SDS011;8341;42.048;24.650;2024-01-30T02:20:10;4.07;;;2.07;;
16460;SDS011;8341;42.048;24.650;2024-01-30T02:22:39;4.37;;;2.53;;
16460;SDS011;8341;42.048;24.650;2024-01-30T02:25:07;3.23;;;2.40;;
16460;SDS011;8341;42.048;24.650;2024-01-30T02:27:34;3.43;;;2.30;;
16460;SDS011;8341;42.048;24.650;2024-01-30T02:30:01;2.83;;;1.90;;
16460;SDS011;8341;42.048;24.650;2024-01-30T02:32:28;3.13;;;2.00;;
16460;SDS011;8341;42.048;24.650;2024-01-30T02:34:54;2.43;;;1.83;;
16460;SDS011;8341;42.048;24.650;2024-01-30T02:37:21;2.63;;;1.90;;
16460;SDS011;8341;42.048;24.650;2024-01-30T02:39:49;7.50;;;3.63;;
16460;SDS011;8341;42.048;24.650;2024-01-30T02:42:16;15.53;;;6.90;;
16460;SDS011;8341;42.048;24.650;2024-01-30T02:44:43;13.67;;;8.30;;
16460;SDS011;8341;42.048;24.650;2024-01-30T02:47:10;13.07;;;8.30;;
16460;SDS011;8341;42.048;24.650;2024-01-30T02:49:36;11.47;;;6.70;;
16460;SDS011;8341;42.048;24.650;2024-01-30T02:52:03;14.40;;;7.83;;
16460;SDS011;8341;42.048;24.650;2024-01-30T02:54:30;17.93;;;8.77;;
16460;SDS011;8341;42.048;24.650;2024-01-30T02:56:58;15.47;;;7.03;;
16460;SDS011;8341;42.048;24.650;2024-01-30T02:59:25;7.00;;;3.77;;
16460;SDS011;8341;42.048;24.650;2024-01-30T03:01:52;15.43;;;8.13;;
16460;SDS011;8341;42.048;24.650;2024-01-30T03:04:19;41.83;;;19.67;;
16460;SDS011;8341;42.048;24.650;2024-01-30T03:06:45;23.40;;;12.00;;
16460;SDS011;8341;42.048;24.650;2024-01-30T03:09:13;22.70;;;12.17;;
16460;SDS011;8341;42.048;24.650;2024-01-30T03:11:39;14.17;;;7.27;;
16460;SDS011;8341;42.048;24.650;2024-01-30T03:14:08;5.97;;;3.50;;
16460;SDS011;8341;42.048;24.650;2024-01-30T03:16:36;13.53;;;6.57;;
16460;SDS011;8341;42.048;24.650;2024-01-30T03:19:03;9.50;;;5.07;;
16460;SDS011;8341;42.048;24.650;2024-01-30T03:21:30;12.60;;;6.73;;
16460;SDS011;8341;42.048;24.650;2024-01-30T03:23:57;9.37;;;5.53;;
16460;SDS011;8341;42.048;24.650;2024-01-30T03:26:24;9.57;;;5.00;;
16460;SDS011;8341;42.048;24.650;2024-01-30T03:28:51;13.63;;;6.10;;
16460;SDS011;8341;42.048;24.650;2024-01-30T03:31:19;11.03;;;6.30;;
16460;SDS011;8341;42.048;24.650;2024-01-30T03:33:46;13.03;;;5.87;;
16460;SDS011;8341;42.048;24.650;2024-01-30T03:36:12;13.90;;;6.77;;
16460;SDS011;8341;42.048;24.650;2024-01-30T03:38:41;11.43;;;6.23;;
16460;SDS011;8341;42.048;24.650;2024-01-30T03:41:08;10.07;;;5.77;;
16460;SDS011;8341;42.048;24.650;2024-01-30T03:43:35;10.87;;;5.30;;
16460;SDS011;8341;42.048;24.650;2024-01-30T03:46:02;9.87;;;5.57;;
16460;SDS011;8341;42.048;24.650;2024-01-30T03:48:31;7.60;;;5.20;;
16460;SDS011;8341;42.048;24.650;2024-01-30T03:50:57;9.10;;;5.33;;
16460;SDS011;8341;42.048;24.650;2024-01-30T03:53:24;7.77;;;4.97;;
16460;SDS011;8341;42.048;24.650;2024-01-30T03:55:51;6.90;;;3.83;;
16460;SDS011;8341;42.048;24.650;2024-01-30T03:58:18;6.57;;;3.90;;
16460;SDS011;8341;42.048;24.650;2024-01-30T04:00:44;5.47;;;2.80;;
16460;SDS011;8341;42.048;24.650;2024-01-30T04:03:11;5.50;;;3.17;;
16460;SDS011;8341;42.048;24.650;2024-01-30T04:05:39;3.93;;;2.43;;
16460;SDS011;8341;42.048;24.650;2024-01-30T04:08:06;3.33;;;2.33;;
16460;SDS011;8341;42.048;24.650;2024-01-30T04:10:33;4.23;;;2.73;;
16460;SDS011;8341;42.048;24.650;2024-01-30T04:13:00;3.60;;;2.47;;
16460;SDS011;8341;42.048;24.650;2024-01-30T04:15:27;5.50;;;3.10;;
16460;SDS011;8341;42.048;24.650;2024-01-30T04:17:56;3.93;;;2.73;;
16460;SDS011;8341;42.048;24.650;2024-01-30T04:20:24;3.60;;;2.40;;
16460;SDS011;8341;42.048;24.650;2024-01-30T04:22:52;5.43;;;2.97;;
16460;SDS011;8341;42.048;24.650;2024-01-30T04:25:19;10.03;;;4.90;;
16460;SDS011;8341;42.048;24.650;2024-01-30T04:27:45;14.10;;;7.37;;
16460;SDS011;8341;42.048;24.650;2024-01-30T04:30:12;12.87;;;8.00;;
16460;SDS011;8341;42.048;24.650;2024-01-30T04:32:39;11.53;;;6.43;;
16460;SDS011;8341;42.048;24.650;2024-01-30T04:35:06;11.40;;;6.90;;
16460;SDS011;8341;42.048;24.650;2024-01-30T04:37:33;13.23;;;8.87;;
16460;SDS011;8341;42.048;24.650;2024-01-30T04:40:01;7.93;;;5.20;;
16460;SDS011;8341;42.048;24.650;2024-01-30T04:42:29;8.40;;;4.57;;
16460;SDS011;8341;42.048;24.650;2024-01-30T04:44:55;7.33;;;4.17;;
16460;SDS011;8341;42.048;24.650;2024-01-30T04:47:22;12.10;;;8.70;;
16460;SDS011;8341;42.048;24.650;2024-01-30T04:49:50;19.57;;;14.07;;
16460;SDS011;8341;42.048;24.650;2024-01-30T04:52:17;14.67;;;8.70;;
16460;SDS011;8341;42.048;24.650;2024-01-30T04:54:44;9.10;;;5.17;;
16460;SDS011;8341;42.048;24.650;2024-01-30T04:57:12;9.73;;;5.50;;
16460;SDS011;8341;42.048;24.650;2024-01-30T04:59:39;11.77;;;7.07;;
16460;SDS011;8341;42.048;24.650;2024-01-30T05:02:06;8.83;;;6.00;;
16460;SDS011;8341;42.048;24.650;2024-01-30T05:04:33;9.23;;;5.30;;
16460;SDS011;8341;42.048;24.650;2024-01-30T05:07:00;11.23;;;6.13;;
16460;SDS011;8341;42.048;24.650;2024-01-30T05:09:26;16.00;;;8.00;;
16460;SDS011;8341;42.048;24.650;2024-01-30T05:11:53;13.23;;;7.70;;
16460;SDS011;8341;42.048;24.650;2024-01-30T05:14:21;17.17;;;8.40;;
16460;SDS011;8341;42.048;24.650;2024-01-30T05:16:48;15.23;;;7.07;;
16460;SDS011;8341;42.048;24.650;2024-01-30T05:19:15;10.97;;;6.27;;
16460;SDS011;8341;42.048;24.650;2024-01-30T05:21:42;11.83;;;6.30;;
16460;SDS011;8341;42.048;24.650;2024-01-30T05:24:10;18.20;;;10.33;;
16460;SDS011;8341;42.048;24.650;2024-01-30T05:26:36;16.80;;;9.00;;
16460;SDS011;8341;42.048;24.650;2024-01-30T05:29:04;14.70;;;8.83;;
16460;SDS011;8341;42.048;24.650;2024-01-30T05:31:33;14.77;;;7.10;;
16460;SDS011;8341;42.048;24.650;2024-01-30T05:34:00;9.33;;;6.40;;
16460;SDS011;8341;42.048;24.650;2024-01-30T05:36:27;10.10;;;6.17;;
16460;SDS011;8341;42.048;24.650;2024-01-30T05:38:55;10.43;;;6.27;;
16460;SDS011;8341;42.048;24.650;2024-01-30T05:41:22;7.90;;;5.13;;
16460;SDS011;8341;42.048;24.650;2024-01-30T05:43:49;11.47;;;6.30;;
16460;SDS011;8341;42.048;24.650;2024-01-30T05:46:16;16.50;;;7.93;;
16460;SDS011;8341;42.048;24.650;2024-01-30T05:48:44;12.00;;;7.00;;
16460;SDS011;8341;42.048;24.650;2024-01-30T05:51:11;11.47;;;7.03;;
16460;SDS011;8341;42.048;24.650;2024-01-30T05:53:38;13.80;;;7.03;;
16460;SDS011;8341;42.048;24.650;2024-01-30T05:56:05;11.80;;;7.17;;
16460;SDS011;8341;42.048;24.650;2024-01-30T05:58:32;17.70;;;9.10;;
16460;SDS011;8341;42.048;24.650;2024-01-30T06:00:59;12.83;;;7.27;;
16460;SDS011;8341;42.048;24.650;2024-01-30T06:03:26;12.93;;;7.77;;
16460;SDS011;8341;42.048;24.650;2024-01-30T06:05:54;15.07;;;8.63;;
16460;SDS011;8341;42.048;24.650;2024-01-30T06:08:21;13.80;;;8.40;;
16460;SDS011;8341;42.048;24.650;2024-01-30T06:10:47;18.80;;;9.53;;
16460;SDS011;8341;42.048;24.650;2024-01-30T06:13:14;15.60;;;8.80;;
16460;SDS011;8341;42.048;24.650;2024-01-30T06:15:41;14.13;;;7.73;;
16460;SDS011;8341;42.048;24.650;2024-01-30T06:18:08;13.63;;;8.53;;
16460;SDS011;8341;42.048;24.650;2024-01-30T06:20:35;16.43;;;9.70;;
16460;SDS011;8341;42.048;24.650;2024-01-30T06:23:03;14.70;;;8.50;;
16460;SDS011;8341;42.048;24.650;2024-01-30T06:25:30;11.67;;;6.43;;
16460;SDS011;8341;42.048;24.650;2024-01-30T06:27:57;11.60;;;7.03;;
16460;SDS011;8341;42.048;24.650;2024-01-30T06:30:23;16.33;;;9.20;;
16460;SDS011;8341;42.048;24.650;2024-01-30T06:32:50;9.23;;;5.93;;
16460;SDS011;8341;42.048;24.650;2024-01-30T06:35:17;9.23;;;6.57;;
16460;SDS011;8341;42.048;24.650;2024-01-30T06:37:44;11.27;;;5.90;;
16460;SDS011;8341;42.048;24.650;2024-01-30T06:40:13;11.50;;;6.73;;
16460;SDS011;8341;42.048;24.650;2024-01-30T06:42:40;10.40;;;6.33;;
16460;SDS011;8341;42.048;24.650;2024-01-30T06:45:07;14.20;;;7.90;;
16460;SDS011;8341;42.048;24.650;2024-01-30T06:47:34;13.87;;;8.50;;
16460;SDS011;8341;42.048;24.650;2024-01-30T06:50:01;9.17;;;5.63;;
16460;SDS011;8341;42.048;24.650;2024-01-30T06:52:28;10.53;;;6.03;;
16460;SDS011;8341;42.048;24.650;2024-01-30T06:54:55;9.20;;;6.17;;
16460;SDS011;8341;42.048;24.650;2024-01-30T06:57:23;9.33;;;5.70;;
16460;SDS011;8341;42.048;24.650;2024-01-30T06:59:52;7.07;;;4.97;;
16460;SDS011;8341;42.048;24.650;2024-01-30T07:02:21;7.77;;;4.90;;
16460;SDS011;8341;42.048;24.650;2024-01-30T07:04:48;7.20;;;4.90;;
16460;SDS011;8341;42.048;24.650;2024-01-30T07:07:15;6.97;;;4.63;;
16460;SDS011;8341;42.048;24.650;2024-01-30T07:09:42;8.60;;;4.97;;
16460;SDS011;8341;42.048;24.650;2024-01-30T07:12:09;10.53;;;5.70;;
16460;SDS011;8341;42.048;24.650;2024-01-30T07:14:37;9.37;;;5.77;;
16460;SDS011;8341;42.048;24.650;2024-01-30T07:17:04;8.87;;;5.57;;
16460;SDS011;8341;42.048;24.650;2024-01-30T07:19:31;9.57;;;5.53;;
16460;SDS011;8341;42.048;24.650;2024-01-30T07:21:58;10.27;;;6.33;;
16460;SDS011;8341;42.048;24.650;2024-01-30T07:24:24;13.03;;;7.30;;
16460;SDS011;8341;42.048;24.650;2024-01-30T07:26:52;13.03;;;7.40;;
16460;SDS011;8341;42.048;24.650;2024-01-30T07:29:19;13.30;;;8.10;;
16460;SDS011;8341;42.048;24.650;2024-01-30T07:31:48;16.63;;;9.00;;
16460;SDS011;8341;42.048;24.650;2024-01-30T07:34:15;16.07;;;9.03;;
16460;SDS011;8341;42.048;24.650;2024-01-30T07:36:42;20.80;;;11.37;;
16460;SDS011;8341;42.048;24.650;2024-01-30T07:39:08;25.20;;;13.60;;
16460;SDS011;8341;42.048;24.650;2024-01-30T07:41:36;14.30;;;8.17;;
16460;SDS011;8341;42.048;24.650;2024-01-30T07:44:03;9.97;;;5.80;;
16460;SDS011;8341;42.048;24.650;2024-01-30T07:46:30;9.13;;;5.67;;
16460;SDS011;8341;42.048;24.650;2024-01-30T07:48:58;9.20;;;5.67;;
16460;SDS011;8341;42.048;24.650;2024-01-30T07:51:25;12.53;;;7.53;;
16460;SDS011;8341;42.048;24.650;2024-01-30T07:53:53;12.23;;;6.60;;
16460;SDS011;8341;42.048;24.650;2024-01-30T07:56:20;7.67;;;5.40;;
16460;SDS011;8341;42.048;24.650;2024-01-30T07:58:47;8.00;;;5.70;;
16460;SDS011;8341;42.048;24.650;2024-01-30T08:01:14;8.30;;;5.23;;
16460;SDS011;8341;42.048;24.650;2024-01-30T08:03:41;8.27;;;5.03;;
16460;SDS011;8341;42.048;24.650;2024-01-30T08:06:09;19.77;;;9.77;;
16460;SDS011;8341;42.048;24.650;2024-01-30T08:08:36;19.43;;;12.43;;
16460;SDS011;8341;42.048;24.650;2024-01-30T08:11:03;9.60;;;5.07;;
16460;SDS011;8341;42.048;24.650;2024-01-30T08:13:30;6.60;;;4.23;;
16460;SDS011;8341;42.048;24.650;2024-01-30T08:15:57;7.80;;;4.83;;
16460;SDS011;8341;42.048;24.650;2024-01-30T08:18:24;9.53;;;6.00;;
16460;SDS011;8341;42.048;24.650;2024-01-30T08:20:51;7.47;;;4.93;;
16460;SDS011;8341;42.048;24.650;2024-01-30T08:23:19;7.73;;;5.30;;
16460;SDS011;8341;42.048;24.650;2024-01-30T08:25:46;7.93;;;5.00;;
16460;SDS011;8341;42.048;24.650;2024-01-30T08:28:13;7.33;;;4.57;;
16460;SDS011;8341;42.048;24.650;2024-01-30T08:30:40;13.90;;;8.77;;
16460;SDS011;8341;42.048;24.650;2024-01-30T08:33:07;17.20;;;10.03;;
16460;SDS011;8341;42.048;24.650;2024-01-30T08:35:33;10.87;;;6.97;;
16460;SDS011;8341;42.048;24.650;2024-01-30T08:38:00;10.93;;;8.03;;
16460;SDS011;8341;42.048;24.650;2024-01-30T08:40:29;9.80;;;6.77;;
16460;SDS011;8341;42.048;24.650;2024-01-30T08:42:56;11.17;;;7.60;;
16460;SDS011;8341;42.048;24.650;2024-01-30T08:45:23;7.47;;;5.70;;
16460;SDS011;8341;42.048;24.650;2024-01-30T08:47:50;7.30;;;4.97;;
16460;SDS011;8341;42.048;24.650;2024-01-30T08:50:17;8.30;;;5.80;;
16460;SDS011;8341;42.048;24.650;2024-01-30T08:52:43;6.47;;;4.47;;
16460;SDS011;8341;42.048;24.650;2024-01-30T08:55:10;8.30;;;5.53;;
16460;SDS011;8341;42.048;24.650;2024-01-30T08:57:38;7.93;;;5.20;;
16460;SDS011;8341;42.048;24.650;2024-01-30T09:00:06;8.00;;;5.27;;
16460;SDS011;8341;42.048;24.650;2024-01-30T09:02:34;8.83;;;6.27;;
16460;SDS011;8341;42.048;24.650;2024-01-30T09:05:01;8.82;;;5.22;;
16460;SDS011;8341;42.048;24.650;2024-01-30T09:07:28;7.87;;;5.03;;
16460;SDS011;8341;42.048;24.650;2024-01-30T09:09:55;6.13;;;4.63;;
16460;SDS011;8341;42.048;24.650;2024-01-30T09:12:21;5.40;;;4.07;;
16460;SDS011;8341;42.048;24.650;2024-01-30T09:14:49;3.38;;;3.08;;
16460;SDS011;8341;42.048;24.650;2024-01-30T09:17:16;5.93;;;3.20;;
16460;SDS011;8341;42.048;24.650;2024-01-30T09:19:43;7.95;;;5.35;;
16460;SDS011;8341;42.048;24.650;2024-01-30T09:22:10;5.22;;;3.50;;
16460;SDS011;8341;42.048;24.650;2024-01-30T09:24:36;3.80;;;3.10;;
16460;SDS011;8341;42.048;24.650;2024-01-30T09:27:03;6.05;;;4.50;;
16460;SDS011;8341;42.048;24.650;2024-01-30T09:29:31;7.55;;;4.80;;
16460;SDS011;8341;42.048;24.650;2024-01-30T09:32:00;4.38;;;3.45;;
16460;SDS011;8341;42.048;24.650;2024-01-30T09:34:27;4.03;;;3.10;;
16460;SDS011;8341;42.048;24.650;2024-01-30T09:36:54;4.25;;;3.30;;
16460;SDS011;8341;42.048;24.650;2024-01-30T09:39:21;4.28;;;3.42;;
16460;SDS011;8341;42.048;24.650;2024-01-30T09:41:48;3.42;;;2.63;;
16460;SDS011;8341;42.048;24.650;2024-01-30T09:44:21;3.90;;;3.00;;
16460;SDS011;8341;42.048;24.650;2024-01-30T09:46:51;5.57;;;3.90;;
16460;SDS011;8341;42.048;24.650;2024-01-30T09:49:19;4.33;;;3.07;;
16460;SDS011;8341;42.048;24.650;2024-01-30T09:51:47;5.93;;;4.10;;
16460;SDS011;8341;42.048;24.650;2024-01-30T09:54:14;7.20;;;4.60;;
16460;SDS011;8341;42.048;24.650;2024-01-30T09:56:42;3.80;;;3.40;;
16460;SDS011;8341;42.048;24.650;2024-01-30T09:59:09;8.20;;;4.95;;
16460;SDS011;8341;42.048;24.650;2024-01-30T10:01:36;7.68;;;4.45;;
16460;SDS011;8341;42.048;24.650;2024-01-30T10:04:03;8.23;;;3.78;;
16460;SDS011;8341;42.048;24.650;2024-01-30T10:06:32;3.70;;;2.78;;
16460;SDS011;8341;42.048;24.650;2024-01-30T10:08:59;4.80;;;3.40;;
16460;SDS011;8341;42.048;24.650;2024-01-30T10:11:26;5.57;;;3.40;;
16460;SDS011;8341;42.048;24.650;2024-01-30T10:13:53;4.10;;;2.83;;
16460;SDS011;8341;42.048;24.650;2024-01-30T10:16:20;6.03;;;3.25;;
16460;SDS011;8341;42.048;24.650;2024-01-30T10:18:47;4.22;;;3.40;;
16460;SDS011;8341;42.048;24.650;2024-01-30T10:21:13;5.20;;;3.70;;
16460;SDS011;8341;42.048;24.650;2024-01-30T10:23:43;3.47;;;2.88;;
16460;SDS011;8341;42.048;24.650;2024-01-30T10:26:10;3.92;;;3.00;;
16460;SDS011;8341;42.048;24.650;2024-01-30T10:28:37;3.85;;;2.90;;
16460;SDS011;8341;42.048;24.650;2024-01-30T10:31:03;3.65;;;2.80;;
16460;SDS011;8341;42.048;24.650;2024-01-30T10:33:30;5.25;;;4.45;;
16460;SDS011;8341;42.048;24.650;2024-01-30T10:35:59;3.33;;;2.53;;
16460;SDS011;8341;42.048;24.650;2024-01-30T10:38:28;6.07;;;2.70;;
16460;SDS011;8341;42.048;24.650;2024-01-30T10:40:58;2.92;;;2.50;;
16460;SDS011;8341;42.048;24.650;2024-01-30T10:43:28;3.38;;;2.75;;
16460;SDS011;8341;42.048;24.650;2024-01-30T10:45:59;3.60;;;2.88;;
16460;SDS011;8341;42.048;24.650;2024-01-30T10:48:33;4.20;;;2.90;;
16460;SDS011;8341;42.048;24.650;2024-01-30T10:51:05;4.45;;;3.45;;
16460;SDS011;8341;42.048;24.650;2024-01-30T10:53:32;5.28;;;3.53;;
16460;SDS011;8341;42.048;24.650;2024-01-30T10:56:02;2.97;;;2.60;;
16460;SDS011;8341;42.048;24.650;2024-01-30T10:58:30;5.60;;;4.63;;
16460;SDS011;8341;42.048;24.650;2024-01-30T11:00:57;3.10;;;2.80;;
16460;SDS011;8341;42.048;24.650;2024-01-30T11:03:24;4.10;;;2.90;;
16460;SDS011;8341;42.048;24.650;2024-01-30T11:05:51;2.88;;;2.35;;
16460;SDS011;8341;42.048;24.650;2024-01-30T11:08:24;2.67;;;2.00;;
16460;SDS011;8341;42.048;24.650;2024-01-30T11:10:55;7.07;;;5.23;;
16460;SDS011;8341;42.048;24.650;2024-01-30T11:13:24;8.82;;;7.30;;
16460;SDS011;8341;42.048;24.650;2024-01-30T11:15:53;3.70;;;2.90;;
16460;SDS011;8341;42.048;24.650;2024-01-30T11:18:23;4.90;;;3.27;;
16460;SDS011;8341;42.048;24.650;2024-01-30T11:20:50;3.13;;;2.80;;
16460;SDS011;8341;42.048;24.650;2024-01-30T11:23:17;3.60;;;3.10;;
16460;SDS011;8341;42.048;24.650;2024-01-30T11:25:44;8.83;;;7.50;;
16460;SDS011;8341;42.048;24.650;2024-01-30T11:28:13;6.97;;;3.33;;
16460;SDS011;8341;42.048;24.650;2024-01-30T11:30:42;4.38;;;3.58;;
16460;SDS011;8341;42.048;24.650;2024-01-30T11:33:10;3.90;;;2.93;;
16460;SDS011;8341;42.048;24.650;2024-01-30T11:35:39;6.10;;;4.63;;
16460;SDS011;8341;42.048;24.650;2024-01-30T11:38:07;3.97;;;3.00;;
16460;SDS011;8341;42.048;24.650;2024-01-30T11:40:35;4.40;;;3.30;;
16460;SDS011;8341;42.048;24.650;2024-01-30T11:43:03;5.33;;;4.00;;
16460;SDS011;8341;42.048;24.650;2024-01-30T11:45:31;4.37;;;2.90;;
16460;SDS011;8341;42.048;24.650;2024-01-30T11:48:00;4.37;;;3.50;;
16460;SDS011;8341;42.048;24.650;2024-01-30T11:50:28;3.57;;;2.90;;
16460;SDS011;8341;42.048;24.650;2024-01-30T11:52:55;4.33;;;3.53;;
16460;SDS011;8341;42.048;24.650;2024-01-30T11:55:23;3.43;;;2.83;;
16460;SDS011;8341;42.048;24.650;2024-01-30T11:57:50;3.37;;;3.07;;
16460;SDS011;8341;42.048;24.650;2024-01-30T12:00:17;4.43;;;3.40;;
16460;SDS011;8341;42.048;24.650;2024-01-30T12:02:48;3.30;;;3.00;;
16460;SDS011;8341;42.048;24.650;2024-01-30T12:05:18;3.97;;;3.00;;
16460;SDS011;8341;42.048;24.650;2024-01-30T12:07:45;4.15;;;2.58;;
16460;SDS011;8341;42.048;24.650;2024-01-30T12:10:12;4.53;;;3.72;;
16460;SDS011;8341;42.048;24.650;2024-01-30T12:12:40;3.88;;;3.15;;
16460;SDS011;8341;42.048;24.650;2024-01-30T12:15:08;3.95;;;3.00;;
16460;SDS011;8341;42.048;24.650;2024-01-30T12:17:36;4.40;;;3.88;;
16460;SDS011;8341;42.048;24.650;2024-01-30T12:20:03;5.60;;;3.88;;
16460;SDS011;8341;42.048;24.650;2024-01-30T12:22:33;9.27;;;7.30;;
16460;SDS011;8341;42.048;24.650;2024-01-30T12:25:04;3.88;;;3.15;;
16460;SDS011;8341;42.048;24.650;2024-01-30T12:27:31;4.20;;;3.22;;
16460;SDS011;8341;42.048;24.650;2024-01-30T12:29:58;4.18;;;2.88;;
16460;SDS011;8341;42.048;24.650;2024-01-30T12:32:25;4.05;;;3.47;;
16460;SDS011;8341;42.048;24.650;2024-01-30T12:34:54;3.88;;;2.85;;
16460;SDS011;8341;42.048;24.650;2024-01-30T12:37:21;2.95;;;2.55;;
16460;SDS011;8341;42.048;24.650;2024-01-30T12:39:51;3.13;;;2.70;;
16460;SDS011;8341;42.048;24.650;2024-01-30T12:42:19;3.28;;;2.83;;
16460;SDS011;8341;42.048;24.650;2024-01-30T12:44:46;2.83;;;2.42;;
16460;SDS011;8341;42.048;24.650;2024-01-30T12:47:13;3.60;;;2.55;;
16460;SDS011;8341;42.048;24.650;2024-01-30T12:49:41;3.75;;;2.60;;
16460;SDS011;8341;42.048;24.650;2024-01-30T12:52:08;3.50;;;2.90;;
16460;SDS011;8341;42.048;24.650;2024-01-30T12:54:35;3.70;;;2.83;;
16460;SDS011;8341;42.048;24.650;2024-01-30T12:57:03;4.20;;;2.92;;
16460;SDS011;8341;42.048;24.650;2024-01-30T12:59:30;2.45;;;2.25;;
16460;SDS011;8341;42.048;24.650;2024-01-30T13:01:58;2.75;;;1.98;;
16460;SDS011;8341;42.048;24.650;2024-01-30T13:04:26;2.30;;;1.92;;
16460;SDS011;8341;42.048;24.650;2024-01-30T13:06:53;2.65;;;2.30;;
16460;SDS011;8341;42.048;24.650;2024-01-30T13:09:20;2.33;;;2.13;;
16460;SDS011;8341;42.048;24.650;2024-01-30T13:11:47;2.95;;;2.28;;
16460;SDS011;8341;42.048;24.650;2024-01-30T13:14:15;3.60;;;3.00;;
16460;SDS011;8341;42.048;24.650;2024-01-30T13:16:42;4.38;;;2.90;;
16460;SDS011;8341;42.048;24.650;2024-01-30T13:19:09;3.90;;;3.00;;
16460;SDS011;8341;42.048;24.650;2024-01-30T13:21:36;3.58;;;2.95;;
16460;SDS011;8341;42.048;24.650;2024-01-30T13:24:03;3.45;;;2.65;;
16460;SDS011;8341;42.048;24.650;2024-01-30T13:26:31;3.75;;;2.85;;
16460;SDS011;8341;42.048;24.650;2024-01-30T13:28:58;5.30;;;2.70;;
16460;SDS011;8341;42.048;24.650;2024-01-30T13:31:26;3.00;;;2.70;;
16460;SDS011;8341;42.048;24.650;2024-01-30T13:33:53;4.00;;;3.08;;
16460;SDS011;8341;42.048;24.650;2024-01-30T13:36:20;4.38;;;3.45;;
16460;SDS011;8341;42.048;24.650;2024-01-30T13:38:47;5.03;;;3.63;;
16460;SDS011;8341;42.048;24.650;2024-01-30T13:41:14;6.15;;;3.83;;
16460;SDS011;8341;42.048;24.650;2024-01-30T13:43:41;5.00;;;3.35;;
16460;SDS011;8341;42.048;24.650;2024-01-30T13:46:09;4.82;;;3.67;;
16460;SDS011;8341;42.048;24.650;2024-01-30T13:48:37;4.13;;;3.20;;
16460;SDS011;8341;42.048;24.650;2024-01-30T13:51:04;4.88;;;3.47;;
16460;SDS011;8341;42.048;24.650;2024-01-30T13:53:31;5.68;;;4.00;;
16460;SDS011;8341;42.048;24.650;2024-01-30T13:55:58;4.85;;;3.35;;
16460;SDS011;8341;42.048;24.650;2024-01-30T13:58:25;4.90;;;3.42;;
16460;SDS011;8341;42.048;24.650;2024-01-30T14:00:52;4.55;;;3.20;;
16460;SDS011;8341;42.048;24.650;2024-01-30T14:03:19;4.07;;;3.20;;
16460;SDS011;8341;42.048;24.650;2024-01-30T14:05:47;5.03;;;3.75;;
16460;SDS011;8341;42.048;24.650;2024-01-30T14:08:14;5.25;;;3.78;;
16460;SDS011;8341;42.048;24.650;2024-01-30T14:10:41;6.72;;;4.00;;
16460;SDS011;8341;42.048;24.650;2024-01-30T14:13:08;6.43;;;4.13;;
16460;SDS011;8341;42.048;24.650;2024-01-30T14:15:36;5.75;;;3.55;;
16460;SDS011;8341;42.048;24.650;2024-01-30T14:18:03;7.05;;;4.63;;
16460;SDS011;8341;42.048;24.650;2024-01-30T14:20:30;5.90;;;4.32;;
16460;SDS011;8341;42.048;24.650;2024-01-30T14:22:58;6.00;;;4.53;;
16460;SDS011;8341;42.048;24.650;2024-01-30T14:25:25;7.07;;;5.05;;
16460;SDS011;8341;42.048;24.650;2024-01-30T14:27:52;9.85;;;6.50;;
16460;SDS011;8341;42.048;24.650;2024-01-30T14:30:19;11.77;;;6.50;;
16460;SDS011;8341;42.048;24.650;2024-01-30T14:32:45;6.20;;;4.10;;
16460;SDS011;8341;42.048;24.650;2024-01-30T14:35:13;6.43;;;4.22;;
16460;SDS011;8341;42.048;24.650;2024-01-30T14:37:40;5.07;;;3.95;;
16460;SDS011;8341;42.048;24.650;2024-01-30T14:40:08;10.02;;;6.78;;
16460;SDS011;8341;42.048;24.650;2024-01-30T14:42:35;13.30;;;8.07;;
16460;SDS011;8341;42.048;24.650;2024-01-30T14:45:02;10.35;;;6.28;;
16460;SDS011;8341;42.048;24.650;2024-01-30T14:47:29;10.05;;;6.05;;
16460;SDS011;8341;42.048;24.650;2024-01-30T14:49:56;7.68;;;4.35;;
16460;SDS011;8341;42.048;24.650;2024-01-30T14:52:24;8.13;;;4.82;;
16460;SDS011;8341;42.048;24.650;2024-01-30T14:54:50;5.82;;;4.70;;
16460;SDS011;8341;42.048;24.650;2024-01-30T14:57:18;6.70;;;4.40;;